Time;durP1;ratioP1;P1;durP2;ratioP2;P2;SDS_P1;SDS_P2;PMS_P1;PMS_P2;Temp;Humidity;BMP_temperature;BMP_pressure;BME280_temperature;BME280_humidity;BME280_pressure;Samples;Min_cycle;Max_cycle;Signal;HPM_P1;HPM_P2
2022/06/23 13:16:55;;;;;;;;;7.00;5.50;;;;;26.29;46.62;100689.28;5107729;27;49745;-73
2022/06/23 13:19:33;;;;;;;;;6.75;6.50;;;;;26.68;45.84;100700.06;5090745;27;49494;-73
2022/06/23 13:22:07;;;;;;;;;4.75;4.75;;;;;26.95;46.50;100700.56;5090718;27;49697;-74
2022/06/23 13:24:36;;;;;;;;;5.00;5.00;;;;;26.84;45.66;100658.94;5089706;27;49856;-73
2022/06/23 13:27:11;;;;;;;;;3.75;3.75;;;;;27.23;44.42;100693.88;5090413;27;49815;-74
2022/06/23 13:29:51;;;;;;;;;7.00;5.75;;;;;27.35;43.77;100682.47;5089919;27;49617;-73
2022/06/23 13:32:26;;;;;;;;;4.00;4.00;;;;;27.51;44.33;100698.78;5090709;27;49779;-74
2022/06/23 13:35:04;;;;;;;;;6.00;5.75;;;;;27.56;44.25;100694.00;5090190;27;49811;-74
2022/06/23 13:37:54;;;;;;;;;7.75;6.50;;;;;27.64;43.71;100691.78;5090280;27;49822;-74
2022/06/23 13:40:32;;;;;;;;;6.00;4.50;;;;;27.76;43.41;100687.63;5069245;28;49640;-75
2022/06/23 13:43:22;;;;;;;;;5.00;5.00;;;;;27.97;43.71;100694.59;5075299;27;49606;-74
2022/06/23 13:46:11;;;;;;;;;5.75;5.75;;;;;27.98;42.62;100676.56;5089945;27;49863;-74
2022/06/23 13:48:56;;;;;;;;;5.25;4.25;;;;;28.34;42.42;100695.38;5105510;27;49853;-74
2022/06/23 13:51:28;;;;;;;;;6.75;4.75;;;;;28.51;40.90;100692.63;5090179;27;49612;-74
2022/06/23 13:54:01;;;;;;;;;5.50;5.50;;;;;28.35;40.57;100619.69;5089925;27;49948;-74
2022/06/23 13:56:38;;;;;;;;;4.75;4.75;;;;;28.81;40.65;100663.03;5105358;27;51946;-74
2022/06/23 13:59:08;;;;;;;;;4.25;4.25;;;;;28.94;39.66;100682.16;5090007;27;49776;-74
2022/06/23 14:01:38;;;;;;;;;5.25;4.75;;;;;28.94;40.34;100674.06;5089677;27;49734;-74
2022/06/23 14:04:23;;;;;;;;;5.25;5.25;;;;;28.90;39.61;100661.69;5090013;27;50088;-74
2022/06/23 14:06:56;;;;;;;;;4.00;4.00;;;;;28.86;38.65;100660.09;5089790;27;50941;-74
2022/06/23 14:09:30;;;;;;;;;6.75;6.75;;;;;28.87;39.78;100662.72;5089800;27;49712;-74
2022/06/23 14:12:18;;;;;;;;;6.00;6.00;;;;;28.87;39.44;100660.00;5090038;27;49822;-74
2022/06/23 14:15:17;;;;;;;;;6.25;6.25;;;;;28.87;39.07;100670.81;5089258;27;49728;-74
2022/06/23 14:17:53;;;;;;;;;6.00;6.00;;;;;28.90;39.91;100649.03;5089727;27;49627;-74
2022/06/23 14:20:33;;;;;;;;;5.00;5.00;;;;;28.90;39.54;100623.84;5089257;27;49695;-74
2022/06/23 14:23:11;;;;;;;;;6.25;6.25;;;;;28.85;39.24;100599.75;5089338;27;49695;-74
2022/06/23 14:25:54;;;;;;;;;7.00;5.00;;;;;29.18;39.28;100651.03;5089071;27;49883;-74
2022/06/23 14:28:30;;;;;;;;;6.75;6.00;;;;;29.27;38.82;100661.31;5075610;27;49703;-74
2022/06/23 14:31:01;;;;;;;;;4.00;4.00;;;;;29.35;38.93;100660.88;5075917;27;49649;-74
2022/06/23 14:33:51;;;;;;;;;5.25;4.75;;;;;29.35;38.98;100644.66;5076235;27;49914;-73
2022/06/23 14:36:39;;;;;;;;;5.00;3.75;;;;;29.39;38.66;100648.88;5054938;28;49738;-73
2022/06/23 14:39:16;;;;;;;;;2.50;2.50;;;;;29.47;37.74;100662.84;5053717;28;50449;-73
2022/06/23 14:41:58;;;;;;;;;4.75;3.75;;;;;29.44;38.66;100668.44;5055190;28;49799;-73
2022/06/23 14:44:51;;;;;;;;;5.25;4.50;;;;;29.51;37.09;100668.97;5055643;28;49726;-73
2022/06/23 14:47:44;;;;;;;;;4.50;4.50;;;;;29.55;37.61;100657.00;5055691;28;49938;-73
2022/06/23 14:50:27;;;;;;;;;5.25;5.25;;;;;29.53;37.44;100656.22;5068226;28;50904;-74
2022/06/23 14:53:05;;;;;;;;;5.75;5.25;;;;;29.60;37.86;100654.88;5075685;27;49724;-74
2022/06/23 14:55:38;;;;;;;;;3.00;3.00;;;;;29.60;37.69;100654.88;5075508;28;50005;-74
2022/06/23 14:58:22;;;;;;;;;7.00;5.75;;;;;29.62;38.10;100661.94;5075849;27;49807;-74
2022/06/23 15:00:57;;;;;;;;;5.50;5.50;;;;;29.67;37.84;100656.25;5075396;27;49707;-74
2022/06/23 15:03:31;;;;;;;;;3.75;3.75;;;;;29.68;37.98;100665.25;5075143;27;49661;-73
2022/06/23 15:06:12;;;;;;;;;5.75;5.75;;;;;29.80;38.19;100654.53;5072045;27;49907;-73
2022/06/23 15:09:01;;;;;;;;;5.00;5.00;;;;;30.00;37.64;100653.31;5062822;27;49956;-74
2022/06/23 15:11:37;;;;;;;;;5.00;5.00;;;;;30.23;37.10;100635.69;5068839;27;50430;-74
2022/06/23 15:14:22;;;;;;;;;5.75;5.25;;;;;30.40;37.08;100623.78;5074254;27;49756;-74
2022/06/23 15:16:57;;;;;;;;;6.00;6.00;;;;;30.84;36.87;100626.34;5075113;28;49765;-75
2022/06/23 15:19:35;;;;;;;;;5.00;4.50;;;;;31.26;36.02;100617.22;5075405;27;49597;-84
2022/06/23 15:25:46;;;;;;;;;5.00;4.00;;;;;32.31;32.78;100619.88;5075856;27;49783;-71
2022/06/23 15:28:41;;;;;;;;;3.50;3.50;;;;;33.20;32.16;100613.31;5058831;28;49724;-70
2022/06/23 15:31:35;;;;;;;;;8.50;6.00;;;;;35.22;29.36;100633.47;5069680;28;49742;-69
2022/06/23 15:34:13;;;;;;;;;4.50;3.00;;;;;36.62;27.06;100626.69;5074546;27;49870;-66
2022/06/23 15:37:00;;;;;;;;;4.00;4.00;;;;;37.38;26.94;100627.00;5087763;27;49989;-74
2022/06/23 15:39:45;;;;;;;;;3.25;3.00;;;;;38.68;23.66;100635.53;5073904;28;49806;-73
2022/06/23 15:42:18;;;;;;;;;7.75;6.25;;;;;37.00;25.82;100578.56;5088130;27;50055;-66
2022/06/23 15:45:00;;;;;;;;;3.75;3.75;;;;;37.03;26.06;100630.25;5093261;27;50563;-76
2022/06/23 15:47:40;;;;;;;;;5.00;3.75;;;;;37.32;25.09;100607.56;5068667;28;49783;-77
2022/06/23 15:50:05;;;;;;;;;3.25;3.25;;;;;39.64;22.79;100629.38;5078561;27;49632;-76
2022/06/23 15:52:42;;;;;;;;;2.75;2.75;;;;;40.87;20.88;100629.13;5111332;27;49829;-74
2022/06/23 15:55:18;;;;;;;;;4.75;4.25;;;;;41.19;19.47;100598.03;5076975;27;49739;-77
2022/06/23 15:57:53;;;;;;;;;3.00;3.00;;;;;41.38;19.42;100571.22;5073599;28;49724;-77
2022/06/23 16:00:31;;;;;;;;;4.00;4.00;;;;;41.06;19.56;100566.53;5072981;27;49728;-76
2022/06/23 16:03:17;;;;;;;;;3.75;3.75;;;;;40.93;21.10;100613.84;5073907;27;49631;-72
2022/06/23 16:05:52;;;;;;;;;4.00;4.00;;;;;39.73;20.99;100611.06;5072912;27;49740;-75
2022/06/23 16:08:18;;;;;;;;;3.25;3.25;;;;;39.30;20.98;100546.84;5073517;27;49774;-76
2022/06/23 16:10:58;;;;;;;;;7.00;4.75;;;;;40.82;21.24;100600.34;5073873;27;49945;-75
2022/06/23 16:13:30;;;;;;;;;3.25;3.25;;;;;41.69;19.90;100550.22;5073786;27;49948;-76
2022/06/23 16:16:01;;;;;;;;;4.50;4.50;;;;;42.25;19.92;100583.34;5072647;27;49960;-78
2022/06/23 16:18:51;;;;;;;;;5.00;5.00;;;;;42.15;19.45;100602.84;5072715;28;49878;-78
2022/06/23 16:21:39;;;;;;;;;5.00;5.00;;;;;41.39;19.91;100578.44;5068377;27;49782;-77
2022/06/23 16:24:10;;;;;;;;;2.50;2.50;;;;;41.35;19.15;100599.13;5072365;27;49949;-78
2022/06/23 16:26:51;;;;;;;;;3.25;3.00;;;;;41.09;19.77;100593.72;5073826;28;49773;-76
2022/06/23 16:29:22;;;;;;;;;4.25;4.25;;;;;41.06;19.89;100610.59;5074042;27;49731;-75
2022/06/23 16:32:03;;;;;;;;;4.00;4.00;;;;;40.14;21.17;100609.47;5074147;27;49676;-78
2022/06/23 16:34:34;;;;;;;;;4.25;4.25;;;;;38.99;22.26;100604.00;5074163;27;49839;-77
2022/06/23 16:37:15;;;;;;;;;4.50;4.25;;;;;38.17;22.73;100601.22;5073475;27;50626;-77
2022/06/23 16:40:01;;;;;;;;;4.50;3.00;;;;;37.41;23.69;100595.75;5072873;27;49782;-77
2022/06/23 16:42:42;;;;;;;;;2.75;2.75;;;;;36.66;24.67;100561.63;5074641;27;49938;-77
2022/06/23 16:45:16;;;;;;;;;3.25;3.25;;;;;36.17;25.23;100598.84;5075122;27;49634;-76
2022/06/23 16:48:22;;;;;;;;;4.75;3.50;;;;;35.73;25.12;100594.56;5073675;27;49769;-78
2022/06/23 16:51:03;;;;;;;;;3.75;2.75;;;;;35.42;26.64;100591.78;5024099;28;49655;-76
2022/06/23 16:53:45;;;;;;;;;4.00;4.00;;;;;35.01;26.58;100570.69;5050517;28;50863;-73
2022/06/23 16:56:10;;;;;;;;;4.00;2.25;;;;;34.93;27.13;100586.81;5051815;28;49974;-76
2022/06/23 16:59:02;;;;;;;;;0.75;0.75;;;;;34.62;27.36;100580.31;5053135;28;49733;-73
2022/06/23 17:01:51;;;;;;;;;3.00;3.00;;;;;34.12;27.60;100553.47;5063817;28;49538;-70
2022/06/23 17:04:19;;;;;;;;;3.00;3.00;;;;;33.97;27.50;100576.50;5065287;28;51031;-76
2022/06/23 17:06:57;;;;;;;;;3.00;3.00;;;;;33.82;27.45;100581.25;5080495;27;49659;-73
2022/06/23 17:09:36;;;;;;;;;3.25;3.25;;;;;33.62;27.61;100564.78;5071385;27;49903;-72
2022/06/23 17:12:18;;;;;;;;;4.25;2.75;;;;;33.50;27.83;100556.59;5080608;27;49591;-75
2022/06/23 17:15:15;;;;;;;;;2.75;2.75;;;;;33.26;27.27;100559.31;5093330;27;49776;-71
2022/06/23 17:18:24;;;;;;;;;3.00;3.00;;;;;33.11;28.01;100537.88;5067638;28;49626;-69
2022/06/23 17:21:05;;;;;;;;;3.75;3.75;;;;;32.87;28.13;100527.88;5066696;28;49913;-80
2022/06/23 17:23:32;;;;;;;;;4.00;4.00;;;;;32.91;28.72;100545.72;5062749;28;50395;-74
2022/06/23 17:26:01;;;;;;;;;4.00;3.50;;;;;32.62;28.48;100519.81;5073084;27;49800;-71
2022/06/23 17:28:33;;;;;;;;;4.00;3.75;;;;;32.62;28.82;100546.97;5072727;27;49900;-76
2022/06/23 17:31:17;;;;;;;;;5.75;4.00;;;;;32.45;28.49;100548.25;5072992;28;49827;-76
2022/06/23 17:33:50;;;;;;;;;3.75;3.75;;;;;31.96;29.22;100483.06;5071881;28;49834;-73
2022/06/23 17:36:24;;;;;;;;;3.75;3.25;;;;;32.27;29.91;100549.56;5073200;27;49814;-75
2022/06/23 17:45:15;;;;;;;;;2.75;2.75;;;;;31.72;29.07;100564.34;5073585;28;49764;-73
2022/06/23 17:48:06;;;;;;;;;2.25;2.25;;;;;31.42;29.58;100538.41;5073275;27;49740;-76
2022/06/23 17:50:38;;;;;;;;;3.00;3.00;;;;;31.43;29.73;100550.13;5070457;28;49752;-74
2022/06/23 17:53:14;;;;;;;;;4.00;3.00;;;;;31.35;29.45;100556.06;5072835;27;50744;-70
2022/06/23 17:55:40;;;;;;;;;5.00;5.00;;;;;31.22;29.56;100560.59;5073563;27;49892;-75
2022/06/23 17:58:19;;;;;;;;;3.25;2.50;;;;;31.14;30.74;100543.94;5078889;27;49753;-71
2022/06/23 18:00:55;;;;;;;;;4.75;4.75;;;;;31.09;30.73;100549.69;5073211;27;49598;-73
